Terminal Aerodrome Forecast
Issued by NWS Twin Cities, MN

Home | Current Version | Previous Version | Graphics & Text | Print | Product List | Glossary On
Versions: 1 2 3 4 5 6 7 8 9 10 11 12 13 14 15 16 17
000
FTUS43 KMPX 221100
TAFEAU
TAF
KEAU 221136Z 2212/2312 15012KT 3SM -DZ BR OVC007
     FM222300 10011KT 3SM -RASN BR OVC007
     FM230600 06013KT 2SM -SN BR OVC005=

USA.gov is the U.S. government's official web portal to all federal, state and local government web resources and services.